Etusivu
METAR-TAF:

METAR-TAF

Lentoasemat :

Elsenborn

Bütgenbach, Belgia

Leveyspiiri: 50-28N, Pituuspiiri: 006-11E, korkeus merenpinnasta: 564 m

Tämänhetkinen sää

Tämä raportti tehtiin 29 minuuttia sitten, kello 05.55 UTC
Tuuli 11 kn lännestä puuskistuen 23 kn:hen
Lämpötila 0°C
Kosteus 93%
Ilmanpaine 1004 hPa
Näkyvyys 10 km tai enemmän

METAR: EBLB 290555Z AUTO 26011G23KT 9999 BKN007/// 00/M01 Q1004 GRN

Aika: 07:24 (06:24 UTC)


TAF: puuttuu

Säähavainnot ja -ennusteet yli 4000 lentoasemalta (METAR- ja TAF-raportit).

Käytössä olevat sääasemat on merkitty karttaan keltaisilla ja punaisilla pisteillä.

Aseta hiiri pisteen päälle nähdäksesi sääaseman nimen.

Klikkaa sitten nähdäksesi säähavainnot ja -ennusteet.

Kartan vaihtaminen: klikkaa mustalla rastilla varustettuja vihreitä pisteitä, niin voit zoomata sisään; viivalla varustettua vihreää pistettä, niin voit zoomata ulos tai vihreitä nuolia, niin pääset viereisille kartoille.


METAR-TAF: